Time;durP1;ratioP1;P1;durP2;ratioP2;P2;SDS_P1;SDS_P2;PMS_P1;PMS_P2;Temp;Humidity;BMP_temperature;BMP_pressure;BME280_temperature;BME280_humidity;BME280_pressure;Samples;Min_cycle;Max_cycle;Signal;HPM_P1;HPM_P2
2023/05/03 00:00:08;;;;;;;24.85;21.55;;;12.80;68.90;;;;;;4957647;28;114344;-87
2023/05/03 00:02:38;;;;;;;24.90;20.85;;;12.80;68.90;;;;;;4949906;28;119240;-87
2023/05/03 00:05:11;;;;;;;24.58;21.00;;;12.80;68.60;;;;;;4997992;28;116189;-86
2023/05/03 00:07:45;;;;;;;25.95;20.83;;;12.80;68.40;;;;;;5000924;28;114587;-87
2023/05/03 00:10:14;;;;;;;23.33;19.90;;;12.80;68.30;;;;;;5007186;28;114491;-86
2023/05/03 00:12:42;;;;;;;26.85;20.30;;;12.80;68.20;;;;;;5001386;28;114686;-87
2023/05/03 00:15:10;;;;;;;25.75;20.10;;;12.80;68.20;;;;;;4964284;28;117196;-86
2023/05/03 00:17:37;;;;;;;24.35;21.70;;;12.70;68.40;;;;;;4982184;28;114667;-88
2023/05/03 00:20:06;;;;;;;27.80;22.27;;;12.80;68.20;;;;;;4982377;28;116097;-87
2023/05/03 00:22:36;;;;;;;27.23;24.40;;;12.80;68.40;;;;;;5001567;28;114303;-86
2023/05/03 00:25:04;;;;;;;28.00;25.10;;;12.70;68.50;;;;;;5000505;28;116282;-86
2023/05/03 00:27:33;;;;;;;29.45;26.30;;;12.70;68.60;;;;;;4968916;28;119250;-87
2023/05/03 00:30:00;;;;;;;31.10;26.73;;;12.70;68.70;;;;;;4985816;28;114465;-86
2023/05/03 00:32:28;;;;;;;31.25;27.88;;;12.70;68.60;;;;;;5003439;28;114473;-87
2023/05/03 00:34:57;;;;;;;30.83;27.55;;;12.70;68.70;;;;;;5015839;28;115387;-86
2023/05/03 00:37:26;;;;;;;31.77;27.63;;;12.60;68.80;;;;;;5004068;28;114430;-86
2023/05/03 00:39:54;;;;;;;30.08;26.38;;;12.70;68.90;;;;;;5003348;28;114705;-86
2023/05/03 00:42:22;;;;;;;29.90;25.33;;;12.70;68.70;;;;;;4970114;28;115330;-87
2023/05/03 00:44:54;;;;;;;27.05;24.13;;;12.70;68.80;;;;;;4985125;28;118680;-86
2023/05/03 00:47:22;;;;;;;27.85;24.88;;;12.60;68.90;;;;;;4984945;28;115237;-87
2023/05/03 00:49:49;;;;;;;30.02;25.75;;;12.60;68.80;;;;;;4985943;28;114350;-86
2023/05/03 00:52:17;;;;;;;28.45;25.45;;;12.60;69.00;;;;;;4985755;28;114360;-86
2023/05/03 00:54:47;;;;;;;27.92;24.98;;;12.60;68.90;;;;;;4968457;28;115591;-85
2023/05/03 00:57:14;;;;;;;26.52;23.67;;;12.60;69.00;;;;;;4967543;28;117703;-85
2023/05/03 00:59:41;;;;;;;28.55;24.25;;;12.60;69.10;;;;;;4985277;28;115152;-84
2023/05/03 01:02:08;;;;;;;29.60;24.05;;;12.60;69.20;;;;;;5003400;28;116944;-84
2023/05/03 01:04:37;;;;;;;27.80;24.42;;;12.60;69.20;;;;;;5000706;28;115888;-85
2023/05/03 01:07:23;;;;;;;27.55;23.92;;;12.60;69.20;;;;;;5002448;28;115514;-85
2023/05/03 01:09:56;;;;;;;25.23;22.38;;;12.60;69.30;;;;;;5002358;28;114521;-85
2023/05/03 01:12:49;;;;;;;25.15;21.05;;;12.50;69.40;;;;;;4984657;28;116335;-86
2023/05/03 01:15:35;;;;;;;25.10;20.35;;;12.60;69.20;;;;;;5002297;28;114941;-86
2023/05/03 01:18:06;;;;;;;24.73;22.02;;;12.50;69.30;;;;;;4999775;28;114791;-85
2023/05/03 01:20:34;;;;;;;25.27;22.08;;;12.50;69.20;;;;;;4984968;28;114479;-85
2023/05/03 01:23:05;;;;;;;23.40;20.35;;;12.50;69.20;;;;;;4952299;28;114390;-85
2023/05/03 01:25:32;;;;;;;24.75;20.77;;;12.50;69.20;;;;;;4967891;28;114846;-85
2023/05/03 01:28:00;;;;;;;25.98;21.77;;;12.50;69.10;;;;;;4984375;28;114769;-85
2023/05/03 01:30:30;;;;;;;24.23;21.50;;;12.50;69.20;;;;;;4985093;28;114539;-85
2023/05/03 01:33:12;;;;;;;24.67;21.33;;;12.50;69.00;;;;;;4983888;28;114428;-85
2023/05/03 01:35:43;;;;;;;24.92;19.75;;;12.50;69.10;;;;;;4983199;28;118282;-85
2023/05/03 01:38:10;;;;;;;26.63;20.40;;;12.50;68.70;;;;;;5000390;28;115332;-85
2023/05/03 01:40:54;;;;;;;23.80;20.10;;;12.50;68.70;;;;;;4984675;28;116233;-85
2023/05/03 01:43:22;;;;;;;27.55;20.48;;;12.50;68.30;;;;;;4985489;28;114507;-85
2023/05/03 01:45:49;;;;;;;25.00;21.98;;;12.50;68.40;;;;;;5002365;28;115286;-84
2023/05/03 01:48:17;;;;;;;25.75;22.95;;;12.40;68.60;;;;;;5001943;28;115107;-85
2023/05/03 01:50:45;;;;;;;21.33;18.55;;;12.50;68.90;;;;;;4952231;28;114501;-84
2023/05/03 01:53:13;;;;;;;22.45;19.85;;;12.50;68.50;;;;;;5001572;28;114516;-86
2023/05/03 01:55:41;;;;;;;23.65;19.35;;;12.40;68.50;;;;;;4983318;28;114914;-86
2023/05/03 01:58:11;;;;;;;24.10;19.35;;;12.50;68.20;;;;;;4951591;28;116099;-86
2023/05/03 02:00:38;;;;;;;22.83;18.45;;;12.40;68.20;;;;;;5001221;28;115612;-86
2023/05/03 02:03:06;;;;;;;21.92;18.85;;;12.40;68.20;;;;;;4985301;28;114801;-85
2023/05/03 02:05:34;;;;;;;23.25;19.52;;;12.40;68.20;;;;;;5000167;28;115475;-85
2023/05/03 02:08:04;;;;;;;21.15;17.88;;;12.40;68.30;;;;;;5001122;28;114849;-85
2023/05/03 02:10:34;;;;;;;20.67;17.27;;;12.30;68.20;;;;;;5001181;28;114524;-86
2023/05/03 02:13:02;;;;;;;23.45;19.20;;;12.30;68.50;;;;;;5001044;28;118299;-85
2023/05/03 02:15:30;;;;;;;23.10;19.40;;;12.20;68.60;;;;;;4934820;28;118514;-84
2023/05/03 02:18:01;;;;;;;23.65;20.38;;;12.20;68.70;;;;;;5000728;28;115470;-84
2023/05/03 02:20:34;;;;;;;26.92;21.35;;;12.20;68.80;;;;;;5001331;28;114429;-84
2023/05/03 02:23:01;;;;;;;23.63;19.85;;;12.20;68.90;;;;;;4993569;28;114387;-85
2023/05/03 02:25:28;;;;;;;26.73;22.35;;;12.20;68.90;;;;;;5017208;28;114983;-85
2023/05/03 02:27:56;;;;;;;25.75;22.65;;;12.20;68.80;;;;;;4986512;28;116631;-85
2023/05/03 02:30:25;;;;;;;25.48;21.25;;;12.10;69.10;;;;;;4973033;28;114954;-85
2023/05/03 02:32:52;;;;;;;25.15;19.70;;;12.10;69.40;;;;;;5013558;28;114196;-85
2023/05/03 02:35:21;;;;;;;24.08;19.95;;;12.10;69.10;;;;;;5014765;28;114519;-83
2023/05/03 02:37:48;;;;;;;22.80;19.05;;;12.10;69.10;;;;;;4973689;28;114320;-83
2023/05/03 02:40:16;;;;;;;25.33;19.23;;;12.10;69.10;;;;;;5003739;28;114398;-84
2023/05/03 02:42:47;;;;;;;22.73;19.00;;;12.10;69.00;;;;;;4986872;28;114629;-85
2023/05/03 02:45:23;;;;;;;21.02;17.35;;;12.10;68.70;;;;;;4986803;28;117977;-85
2023/05/03 02:47:51;;;;;;;19.73;16.70;;;12.10;68.80;;;;;;4966068;28;118491;-86
2023/05/03 02:50:21;;;;;;;23.92;19.05;;;12.00;68.80;;;;;;5000219;28;115071;-85
2023/05/03 02:52:48;;;;;;;20.90;17.30;;;12.00;69.10;;;;;;4999514;28;117260;-86
2023/05/03 02:55:15;;;;;;;25.35;20.40;;;12.10;69.10;;;;;;4994487;28;115022;-86
2023/05/03 02:57:44;;;;;;;24.40;18.98;;;12.10;69.20;;;;;;4983717;28;117506;-85
2023/05/03 03:00:16;;;;;;;26.88;22.05;;;12.10;69.30;;;;;;5000903;28;114590;-85
2023/05/03 03:02:43;;;;;;;24.70;19.05;;;12.10;69.40;;;;;;4985334;28;114531;-86
2023/05/03 03:05:11;;;;;;;26.67;22.42;;;12.20;69.50;;;;;;4984661;28;114966;-86
2023/05/03 03:07:42;;;;;;;22.40;19.83;;;12.20;69.50;;;;;;5001198;28;115446;-85
2023/05/03 03:10:10;;;;;;;25.23;20.65;;;12.20;69.50;;;;;;4992769;28;114552;-85
2023/05/03 03:12:38;;;;;;;24.58;20.27;;;12.20;69.50;;;;;;5018025;28;114668;-85
2023/05/03 03:15:10;;;;;;;21.40;19.10;;;12.20;69.60;;;;;;5000865;28;115606;-86
2023/05/03 03:17:38;;;;;;;22.58;19.13;;;12.10;69.70;;;;;;4999796;28;119479;-85
2023/05/03 03:20:12;;;;;;;23.58;20.02;;;12.10;69.70;;;;;;4975333;28;114489;-85
2023/05/03 03:22:44;;;;;;;26.00;20.92;;;12.10;69.70;;;;;;5013957;28;114557;-87
2023/05/03 03:25:12;;;;;;;29.40;22.85;;;12.10;69.80;;;;;;5000360;28;114972;-86
2023/05/03 03:27:41;;;;;;;29.10;23.05;;;12.10;69.90;;;;;;4967822;28;115228;-87
2023/05/03 03:30:10;;;;;;;27.02;23.60;;;12.00;70.10;;;;;;4967505;28;114407;-86
2023/05/03 03:32:46;;;;;;;27.13;22.27;;;12.00;70.40;;;;;;4968768;28;114549;-86
2023/05/03 03:35:21;;;;;;;29.50;24.02;;;12.00;70.50;;;;;;4969110;28;115558;-86
2023/05/03 03:37:50;;;;;;;28.17;24.75;;;12.00;70.50;;;;;;4984644;28;117340;-86
2023/05/03 03:40:18;;;;;;;28.42;25.23;;;12.00;70.60;;;;;;4966145;28;114432;-86
2023/05/03 03:42:45;;;;;;;29.75;25.85;;;12.00;70.60;;;;;;4951483;28;114902;-87
2023/05/03 03:45:13;;;;;;;31.92;25.38;;;12.00;70.70;;;;;;4964103;28;114874;-85
2023/05/03 03:47:40;;;;;;;26.95;23.20;;;12.10;70.70;;;;;;4947352;28;115632;-86
2023/05/03 03:50:08;;;;;;;33.97;27.42;;;12.10;70.70;;;;;;4982785;28;114310;-86
2023/05/03 03:52:36;;;;;;;33.58;27.38;;;12.10;70.70;;;;;;4983115;28;114427;-84
2023/05/03 03:55:05;;;;;;;32.80;27.48;;;12.10;70.80;;;;;;4998785;28;114858;-85
2023/05/03 03:57:32;;;;;;;33.13;27.15;;;12.10;70.90;;;;;;4985606;28;116958;-85
2023/05/03 04:00:08;;;;;;;34.70;28.85;;;12.10;71.00;;;;;;4986082;28;114899;-86
2023/05/03 04:02:38;;;;;;;38.72;32.35;;;12.10;71.10;;;;;;5010849;28;114545;-85
2023/05/03 04:05:30;;;;;;;44.60;36.13;;;12.10;71.40;;;;;;5007791;28;114851;-86
2023/05/03 04:07:59;;;;;;;39.30;32.58;;;12.20;71.50;;;;;;4989111;28;114680;-85
2023/05/03 04:10:29;;;;;;;41.17;33.15;;;12.00;71.40;;;;;;4987328;28;114732;-85
2023/05/03 04:12:57;;;;;;;45.63;36.22;;;12.00;71.30;;;;;;5002382;28;114574;-84
2023/05/03 04:15:24;;;;;;;46.42;36.17;;;12.10;71.60;;;;;;4984293;28;114913;-84
2023/05/03 04:17:53;;;;;;;45.13;35.67;;;12.10;71.60;;;;;;4982697;28;117541;-84
2023/05/03 04:20:22;;;;;;;43.03;35.97;;;12.10;71.60;;;;;;5002745;28;114211;-85
2023/05/03 04:22:51;;;;;;;47.72;37.55;;;12.10;71.70;;;;;;5003881;28;114369;-84
2023/05/03 04:25:24;;;;;;;49.50;39.40;;;12.10;71.60;;;;;;4986449;28;117850;-84
2023/05/03 04:27:58;;;;;;;43.10;34.65;;;12.10;71.60;;;;;;4983312;28;114562;-86
2023/05/03 04:30:28;;;;;;;45.45;37.33;;;12.10;71.60;;;;;;5004751;28;114516;-84
2023/05/03 04:33:00;;;;;;;39.92;33.15;;;12.10;71.60;;;;;;5017288;28;114113;-85
2023/05/03 04:35:29;;;;;;;41.28;36.10;;;12.10;71.60;;;;;;5020639;28;116865;-85
2023/05/03 04:38:01;;;;;;;43.95;36.22;;;12.10;71.50;;;;;;5002126;28;116954;-85
2023/05/03 04:40:33;;;;;;;46.72;36.53;;;12.10;71.50;;;;;;4955497;28;114501;-84
2023/05/03 04:43:05;;;;;;;50.28;39.50;;;12.10;71.70;;;;;;5002881;28;114371;-85
2023/05/03 04:45:37;;;;;;;45.85;37.45;;;12.10;71.60;;;;;;5002324;28;115834;-87
2023/05/03 04:48:08;;;;;;;48.55;37.90;;;12.20;71.70;;;;;;4970154;28;119120;-87
2023/05/03 04:50:35;;;;;;;42.78;35.58;;;12.20;71.60;;;;;;4978603;28;114429;-85
2023/05/03 04:53:05;;;;;;;46.60;37.17;;;12.20;71.50;;;;;;5003944;28;114511;-85
2023/05/03 04:55:36;;;;;;;48.97;38.08;;;12.20;71.70;;;;;;4974970;28;114947;-85
2023/05/03 04:58:05;;;;;;;47.50;37.33;;;12.20;71.60;;;;;;5009997;28;114676;-84
2023/05/03 05:00:36;;;;;;;44.78;34.83;;;12.20;71.60;;;;;;4994142;28;114398;-86
2023/05/03 05:03:10;;;;;;;46.28;36.25;;;12.20;71.80;;;;;;4971103;28;114791;-86
2023/05/03 05:05:38;;;;;;;44.53;37.38;;;12.20;71.40;;;;;;4985025;28;118543;-86
2023/05/03 05:08:08;;;;;;;44.60;36.75;;;12.20;71.50;;;;;;5000783;28;114740;-85
2023/05/03 05:10:40;;;;;;;44.70;36.05;;;12.20;71.30;;;;;;5018691;28;114601;-87
2023/05/03 05:13:09;;;;;;;46.85;35.90;;;12.20;71.30;;;;;;4990992;28;114635;-86
2023/05/03 05:15:37;;;;;;;45.70;34.92;;;12.20;71.30;;;;;;4981883;28;117972;-84
2023/05/03 05:18:05;;;;;;;44.33;34.53;;;12.20;71.30;;;;;;4984197;28;114672;-85
2023/05/03 05:20:33;;;;;;;43.42;35.22;;;12.10;71.30;;;;;;4979941;28;117105;-84
2023/05/03 05:23:02;;;;;;;48.45;36.28;;;12.20;71.40;;;;;;4985670;28;114638;-84
2023/05/03 05:25:29;;;;;;;42.85;33.17;;;12.10;71.30;;;;;;4968173;28;115907;-85
2023/05/03 05:27:58;;;;;;;48.72;38.40;;;12.10;71.30;;;;;;4984150;28;114788;-85
2023/05/03 05:30:25;;;;;;;40.80;33.58;;;12.20;71.10;;;;;;4950716;28;114712;-86
2023/05/03 05:32:54;;;;;;;40.03;32.67;;;12.20;71.10;;;;;;4967818;28;114564;-85
2023/05/03 05:35:21;;;;;;;46.70;35.72;;;12.20;71.10;;;;;;4966235;28;118130;-86
2023/05/03 05:37:49;;;;;;;41.33;33.88;;;12.20;71.10;;;;;;4963634;28;117859;-86
2023/05/03 05:40:17;;;;;;;41.88;34.33;;;12.20;71.20;;;;;;4968907;28;114663;-86
2023/05/03 05:42:49;;;;;;;42.58;35.40;;;12.20;71.10;;;;;;4967946;28;114437;-85
2023/05/03 05:45:18;;;;;;;46.58;36.58;;;12.10;71.20;;;;;;4970083;28;115078;-84
2023/05/03 05:47:46;;;;;;;50.72;39.83;;;12.10;71.50;;;;;;4965337;28;115767;-86
2023/05/03 05:50:16;;;;;;;48.85;37.78;;;12.10;71.50;;;;;;4972214;28;114657;-85
2023/05/03 05:52:51;;;;;;;47.33;38.97;;;12.10;71.40;;;;;;5002946;28;114397;-85
2023/05/03 05:55:21;;;;;;;47.53;38.45;;;12.00;71.50;;;;;;4999401;28;114994;-85
2023/05/03 05:57:50;;;;;;;48.95;39.67;;;12.00;71.60;;;;;;4986894;28;117513;-85
2023/05/03 06:00:21;;;;;;;55.30;44.97;;;12.00;71.60;;;;;;4985591;28;114215;-85
2023/05/03 06:02:49;;;;;;;54.35;42.55;;;12.00;71.70;;;;;;4969822;28;114563;-86
2023/05/03 06:05:20;;;;;;;55.97;44.40;;;11.90;71.80;;;;;;4997272;28;116505;-85
2023/05/03 06:07:48;;;;;;;52.22;41.90;;;11.90;71.90;;;;;;4997071;28;114892;-86
2023/05/03 06:10:16;;;;;;;44.60;37.40;;;11.90;72.10;;;;;;4967471;28;114394;-87
2023/05/03 06:12:47;;;;;;;47.90;39.20;;;11.90;71.70;;;;;;5000309;28;114643;-85
2023/05/03 06:15:19;;;;;;;44.22;36.00;;;11.80;71.90;;;;;;4983208;28;119819;-84
2023/05/03 06:17:47;;;;;;;43.13;37.53;;;11.70;71.80;;;;;;4949124;28;117282;-85
2023/05/03 06:20:15;;;;;;;43.25;35.45;;;11.50;72.50;;;;;;4998327;28;114568;-85
2023/05/03 06:22:42;;;;;;;43.97;36.15;;;11.50;72.60;;;;;;4982778;28;114637;-86
2023/05/03 06:25:13;;;;;;;43.70;36.83;;;11.50;72.70;;;;;;4999910;28;116514;-85
2023/05/03 06:27:45;;;;;;;36.72;31.27;;;11.30;72.90;;;;;;4998204;28;114760;-85
2023/05/03 06:30:12;;;;;;;35.95;32.05;;;11.20;72.60;;;;;;4998660;28;114540;-84
2023/05/03 06:32:41;;;;;;;37.20;32.85;;;11.20;73.10;;;;;;4983187;28;114742;-87
2023/05/03 06:35:09;;;;;;;41.55;36.85;;;11.20;73.20;;;;;;4996625;28;116766;-86
2023/05/03 06:37:38;;;;;;;38.70;34.42;;;11.10;73.40;;;;;;4982575;28;117712;-86
2023/05/03 06:40:06;;;;;;;36.75;32.08;;;11.20;73.40;;;;;;5019702;28;114281;-85
2023/05/03 06:42:35;;;;;;;38.75;31.77;;;11.10;72.80;;;;;;5004629;28;114535;-85
2023/05/03 06:45:10;;;;;;;34.78;30.98;;;11.00;73.00;;;;;;4999100;28;114906;-86
2023/05/03 06:47:41;;;;;;;29.42;24.83;;;11.00;73.10;;;;;;4999787;28;116789;-87
2023/05/03 06:50:10;;;;;;;32.03;25.88;;;11.00;73.00;;;;;;4999850;28;114208;-85
2023/05/03 06:52:37;;;;;;;28.20;22.92;;;11.00;72.90;;;;;;4965384;28;114528;-85
2023/05/03 06:55:04;;;;;;;27.95;21.52;;;11.00;72.70;;;;;;4999974;28;115056;-84
2023/05/03 06:57:32;;;;;;;22.38;18.08;;;10.90;72.40;;;;;;4998841;28;117590;-84
2023/05/03 07:00:00;;;;;;;22.27;17.88;;;10.90;72.20;;;;;;4999612;28;114745;-86
2023/05/03 07:02:28;;;;;;;21.10;17.00;;;10.80;71.90;;;;;;4998951;28;115949;-86
2023/05/03 07:04:56;;;;;;;20.70;16.60;;;10.70;71.90;;;;;;4996554;28;115097;-85
2023/05/03 07:07:29;;;;;;;20.55;15.38;;;10.70;72.10;;;;;;4999034;28;118906;-85
2023/05/03 07:09:56;;;;;;;24.08;16.50;;;10.60;72.30;;;;;;4999069;28;114359;-84
2023/05/03 07:12:27;;;;;;;25.33;16.77;;;10.70;72.20;;;;;;4999698;28;114916;-86
2023/05/03 07:14:56;;;;;;;21.77;15.93;;;10.60;72.20;;;;;;4983290;28;115663;-85
2023/05/03 07:17:23;;;;;;;23.25;15.38;;;10.60;72.10;;;;;;5000216;28;114759;-85
2023/05/03 07:19:51;;;;;;;31.27;15.10;;;10.70;71.90;;;;;;4983552;28;114493;-85
2023/05/03 07:22:24;;;;;;;25.92;16.92;;;10.60;71.90;;;;;;4966907;28;114538;-85
2023/05/03 07:24:53;;;;;;;31.15;16.00;;;10.60;72.20;;;;;;4994915;28;115043;-85
2023/05/03 07:27:21;;;;;;;29.40;19.00;;;10.60;72.10;;;;;;4982579;28;114965;-85
2023/05/03 07:29:48;;;;;;;43.63;19.40;;;10.70;72.20;;;;;;4950572;28;114585;-84
2023/05/03 07:32:16;;;;;;;27.58;17.35;;;10.70;72.20;;;;;;4999534;28;115044;-85
2023/05/03 07:34:43;;;;;;;24.20;17.00;;;10.70;72.30;;;;;;4981402;28;115053;-84
2023/05/03 07:37:11;;;;;;;24.00;16.52;;;10.70;72.20;;;;;;4966200;28;118971;-85
2023/05/03 07:39:38;;;;;;;21.27;15.50;;;10.80;72.10;;;;;;5001682;28;114979;-85
2023/05/03 07:42:06;;;;;;;24.38;15.68;;;10.80;71.90;;;;;;4972464;28;114644;-85
2023/05/03 07:44:40;;;;;;;25.35;17.77;;;10.70;72.00;;;;;;4984691;28;118035;-84
2023/05/03 07:47:07;;;;;;;25.00;17.17;;;10.80;72.20;;;;;;4998409;28;115093;-84
2023/05/03 07:49:36;;;;;;;23.85;17.08;;;10.80;72.00;;;;;;4999399;28;114540;-86
2023/05/03 07:52:03;;;;;;;26.35;19.27;;;10.80;72.20;;;;;;5001093;28;114963;-85
2023/05/03 07:54:31;;;;;;;29.55;20.70;;;10.80;72.00;;;;;;4980196;28;115207;-85
2023/05/03 07:56:58;;;;;;;24.33;19.80;;;10.80;72.00;;;;;;4998781;28;114877;-86
2023/05/03 07:59:25;;;;;;;23.50;18.45;;;10.80;72.10;;;;;;4983613;28;114569;-86
2023/05/03 08:01:52;;;;;;;24.95;19.83;;;10.80;72.00;;;;;;4999896;28;115870;-84
2023/05/03 08:04:20;;;;;;;25.08;17.77;;;10.80;72.00;;;;;;4998737;28;117239;-84
2023/05/03 08:06:48;;;;;;;22.02;16.15;;;10.80;72.00;;;;;;4966205;28;117302;-84
2023/05/03 08:09:17;;;;;;;20.55;16.88;;;10.80;71.90;;;;;;5000728;28;114575;-83
2023/05/03 08:11:44;;;;;;;19.00;15.68;;;10.80;71.70;;;;;;4982880;28;114818;-84
2023/05/03 08:14:17;;;;;;;25.00;16.90;;;10.70;71.90;;;;;;4979798;28;116997;-85
2023/05/03 08:16:45;;;;;;;24.85;18.15;;;10.80;72.30;;;;;;4997048;28;118155;-85
2023/05/03 08:19:12;;;;;;;21.80;17.95;;;10.80;72.30;;;;;;4999264;28;114636;-85
2023/05/03 08:21:40;;;;;;;23.95;18.80;;;10.90;72.40;;;;;;4998676;28;114405;-84
2023/05/03 08:24:07;;;;;;;26.65;18.77;;;10.90;72.20;;;;;;4978975;28;117536;-84
2023/05/03 08:26:35;;;;;;;25.08;19.35;;;10.90;72.00;;;;;;4952477;28;117478;-85
2023/05/03 08:29:03;;;;;;;31.17;22.13;;;10.90;71.60;;;;;;4999133;28;114531;-85
2023/05/03 08:31:31;;;;;;;20.83;16.77;;;10.90;71.60;;;;;;4966197;28;114496;-85
2023/05/03 08:34:00;;;;;;;24.38;17.45;;;10.90;71.00;;;;;;4980584;28;115195;-85
2023/05/03 08:36:27;;;;;;;21.83;15.63;;;10.80;71.10;;;;;;4999043;28;116071;-84
2023/05/03 08:38:56;;;;;;;22.95;16.38;;;10.80;71.30;;;;;;4981949;28;114566;-83
2023/05/03 08:41:29;;;;;;;22.65;16.45;;;10.90;71.40;;;;;;5006979;28;114264;-83
2023/05/03 08:43:58;;;;;;;23.05;16.58;;;11.00;71.70;;;;;;5015856;28;115195;-85
2023/05/03 08:46:26;;;;;;;23.83;14.73;;;11.00;70.90;;;;;;4985010;28;114647;-86
2023/05/03 08:48:56;;;;;;;22.40;15.68;;;11.00;70.60;;;;;;5002497;28;114618;-84
2023/05/03 08:51:24;;;;;;;19.60;15.05;;;10.90;70.90;;;;;;4985963;28;114620;-85
2023/05/03 08:53:51;;;;;;;25.05;15.68;;;10.90;71.00;;;;;;5000403;28;118564;-85
2023/05/03 08:56:41;;;;;;;21.52;14.88;;;10.90;70.70;;;;;;4985238;28;117495;-84
2023/05/03 08:59:16;;;;;;;25.63;16.20;;;10.90;70.10;;;;;;5001754;28;114377;-85
2023/05/03 09:01:44;;;;;;;;;;;10.80;70.90;;;;;;4969281;28;114447;-86
2023/05/03 09:04:11;;;;;;;21.92;16.40;;;10.70;70.70;;;;;;4997306;28;116083;-85
2023/05/03 09:06:39;;;;;;;29.48;19.08;;;10.80;71.80;;;;;;5000741;28;115225;-85
2023/05/03 09:09:07;;;;;;;28.83;21.27;;;11.00;71.60;;;;;;4985040;28;114407;-85
2023/05/03 09:11:36;;;;;;;37.10;28.02;;;11.10;71.50;;;;;;4984146;28;114621;-85
2023/05/03 09:14:22;;;;;;;33.17;25.63;;;11.20;71.50;;;;;;4967420;28;115574;-86
2023/05/03 09:16:53;;;;;;;35.50;27.60;;;11.30;70.90;;;;;;4984362;28;114799;-84
2023/05/03 09:19:23;;;;;;;31.33;23.80;;;11.20;70.70;;;;;;5001575;28;115350;-86
2023/05/03 09:21:50;;;;;;;33.70;22.45;;;11.30;70.40;;;;;;4969470;28;117083;-85
2023/05/03 09:24:19;;;;;;;29.77;20.00;;;11.30;70.40;;;;;;4983232;28;115047;-86
2023/05/03 09:26:48;;;;;;;29.08;19.75;;;11.30;70.30;;;;;;4984594;28;114669;-85
2023/05/03 09:29:29;;;;;;;28.38;19.30;;;11.40;70.50;;;;;;4984594;28;114360;-86
2023/05/03 09:31:59;;;;;;;28.40;20.02;;;11.50;70.40;;;;;;4983321;28;114563;-86
2023/05/03 09:34:26;;;;;;;29.75;19.75;;;11.40;70.10;;;;;;4999610;28;114988;-86
2023/05/03 09:36:55;;;;;;;33.38;23.02;;;11.50;70.00;;;;;;5000524;28;117097;-85
2023/05/03 09:39:22;;;;;;;26.20;19.85;;;11.50;69.70;;;;;;4982909;28;116157;-85
2023/05/03 09:41:49;;;;;;;31.90;22.58;;;11.50;69.50;;;;;;4984595;28;114203;-87
2023/05/03 09:44:16;;;;;;;33.90;25.10;;;11.60;69.60;;;;;;4983780;28;115017;-86
2023/05/03 09:47:05;;;;;;;31.80;24.60;;;11.60;69.40;;;;;;5001835;28;114651;-86
2023/05/03 09:49:43;;;;;;;29.10;19.20;;;11.60;69.20;;;;;;4999397;28;114283;-87
2023/05/03 09:52:10;;;;;;;35.28;22.52;;;11.60;69.20;;;;;;4981311;28;114291;-85
2023/05/03 09:54:37;;;;;;;29.30;20.38;;;11.40;69.10;;;;;;5014005;28;117129;-86
2023/05/03 09:57:06;;;;;;;22.15;17.02;;;11.50;69.10;;;;;;4996417;28;115038;-85
2023/05/03 09:59:35;;;;;;;31.13;20.08;;;11.50;69.00;;;;;;4999306;28;114470;-86
2023/05/03 10:02:04;;;;;;;21.00;15.43;;;11.50;69.10;;;;;;4980693;28;114406;-86
2023/05/03 10:04:50;;;;;;;21.52;15.75;;;11.50;68.30;;;;;;4982146;28;117960;-86
2023/05/03 10:07:18;;;;;;;23.98;17.05;;;11.40;68.20;;;;;;5000556;28;114908;-85
2023/05/03 10:09:48;;;;;;;23.67;15.38;;;11.30;68.80;;;;;;5005630;28;114273;-85
2023/05/03 10:12:16;;;;;;;21.67;14.85;;;11.40;68.40;;;;;;5001964;28;114673;-86
2023/05/03 10:14:45;;;;;;;25.20;16.80;;;11.30;68.20;;;;;;4984900;28;117622;-87
2023/05/03 10:17:18;;;;;;;21.25;15.75;;;11.30;68.40;;;;;;4984046;28;114692;-86
2023/05/03 10:19:51;;;;;;;24.50;16.70;;;11.30;68.30;;;;;;5000524;28;119096;-86
2023/05/03 10:22:18;;;;;;;22.88;16.25;;;11.30;68.40;;;;;;5003893;28;115238;-86
2023/05/03 10:25:01;;;;;;;21.73;14.93;;;11.30;68.20;;;;;;4947603;28;119317;-86
2023/05/03 10:27:42;;;;;;;24.17;17.00;;;11.40;67.60;;;;;;5000677;28;114684;-86
2023/05/03 10:30:39;;;;;;;23.10;16.95;;;11.40;68.00;;;;;;5001679;28;114465;-86
2023/05/03 10:33:12;;;;;;;26.17;18.17;;;11.40;67.30;;;;;;4997760;28;114499;-86
2023/05/03 10:35:42;;;;;;;23.60;19.08;;;11.40;67.90;;;;;;5000634;28;116255;-86
2023/05/03 10:38:16;;;;;;;24.20;16.98;;;11.30;68.00;;;;;;4951288;28;114593;-86
2023/05/03 10:40:45;;;;;;;24.00;17.20;;;11.40;67.70;;;;;;4992528;28;114962;-85
2023/05/03 10:43:34;;;;;;;23.55;17.55;;;11.40;67.50;;;;;;5039019;28;114215;-86
2023/05/03 10:46:06;;;;;;;24.80;19.02;;;11.50;67.40;;;;;;5002491;28;115569;-86
2023/05/03 10:48:34;;;;;;;26.05;18.05;;;11.40;67.60;;;;;;4967248;28;117874;-86
2023/05/03 10:51:32;;;;;;;26.67;18.90;;;11.50;67.40;;;;;;5016454;28;114442;-84
2023/05/03 10:54:00;;;;;;;24.73;18.60;;;11.60;67.20;;;;;;4982489;28;115207;-86
2023/05/03 10:56:27;;;;;;;27.50;20.65;;;11.50;67.80;;;;;;4998006;28;115103;-86
2023/05/03 10:58:57;;;;;;;24.75;20.80;;;11.50;67.50;;;;;;4998938;28;114674;-83
2023/05/03 11:01:26;;;;;;;26.23;19.08;;;11.70;67.60;;;;;;4999539;28;114573;-85
2023/05/03 11:04:01;;;;;;;26.42;19.77;;;11.70;66.90;;;;;;4982381;28;115311;-84
2023/05/03 11:06:39;;;;;;;26.48;18.92;;;11.70;67.10;;;;;;4990425;28;119093;-85
2023/05/03 11:09:08;;;;;;;23.48;18.40;;;11.80;67.50;;;;;;4998659;28;114657;-86
2023/05/03 11:11:40;;;;;;;24.77;19.27;;;11.70;66.90;;;;;;4965507;28;115083;-85
2023/05/03 11:14:08;;;;;;;25.05;18.73;;;11.80;66.70;;;;;;4979381;28;114333;-85
2023/05/03 11:16:46;;;;;;;27.38;19.73;;;11.80;66.70;;;;;;4949168;28;118172;-86
2023/05/03 11:19:14;;;;;;;28.95;19.58;;;11.80;66.60;;;;;;4998138;28;116760;-86
2023/05/03 11:21:42;;;;;;;25.20;17.73;;;11.90;66.70;;;;;;4982946;28;114621;-85
2023/05/03 11:24:09;;;;;;;25.38;18.65;;;11.90;66.30;;;;;;4982795;28;114713;-85
2023/05/03 11:26:37;;;;;;;26.20;18.38;;;12.00;66.10;;;;;;4998330;28;116444;-85
2023/05/03 11:29:04;;;;;;;25.60;18.95;;;12.00;66.60;;;;;;4999202;28;115435;-84
2023/05/03 11:31:34;;;;;;;25.98;19.00;;;12.10;66.50;;;;;;4998952;28;114514;-85
2023/05/03 11:34:01;;;;;;;25.38;19.35;;;12.20;66.30;;;;;;5014792;28;115227;-85
2023/05/03 11:36:29;;;;;;;24.92;18.73;;;12.20;66.10;;;;;;4996419;28;115648;-84
2023/05/03 11:38:57;;;;;;;24.25;18.95;;;12.30;65.60;;;;;;4998414;28;114763;-85
2023/05/03 11:41:26;;;;;;;24.67;18.48;;;12.20;65.90;;;;;;4982176;28;114681;-85
2023/05/03 11:43:53;;;;;;;27.15;18.67;;;12.30;65.30;;;;;;4980627;28;114836;-85
2023/05/03 11:46:36;;;;;;;21.48;16.52;;;12.30;64.80;;;;;;4983007;28;115302;-83
2023/05/03 11:49:05;;;;;;;27.17;19.33;;;12.30;63.90;;;;;;4997655;28;114565;-84
2023/05/03 11:51:32;;;;;;;47.15;22.70;;;12.20;64.10;;;;;;5468435;22;115656;-84
2023/05/03 11:54:01;;;;;;;23.33;17.25;;;12.10;64.50;;;;;;4996462;28;115176;-84
2023/05/03 11:56:46;;;;;;;24.67;15.77;;;12.00;64.20;;;;;;4995800;28;115028;-86
2023/05/03 11:59:14;;;;;;;26.48;17.98;;;12.00;64.30;;;;;;4997702;28;116767;-85
2023/05/03 12:01:42;;;;;;;23.98;16.60;;;12.10;64.20;;;;;;5011867;28;114561;-85
2023/05/03 12:04:11;;;;;;;22.05;14.93;;;12.20;64.20;;;;;;5014035;28;114631;-86
2023/05/03 12:06:40;;;;;;;24.67;17.35;;;12.10;63.40;;;;;;4998976;28;115761;-85
2023/05/03 12:09:14;;;;;;;22.17;17.55;;;12.10;63.00;;;;;;5013414;28;116355;-86
2023/05/03 12:11:44;;;;;;;28.38;17.83;;;12.00;63.10;;;;;;4997538;28;114601;-84
2023/05/03 12:14:14;;;;;;;27.38;17.80;;;11.90;63.20;;;;;;5015156;28;116798;-85
2023/05/03 12:16:47;;;;;;;19.10;14.52;;;11.90;63.20;;;;;;4997008;28;117557;-85
2023/05/03 12:19:29;;;;;;;25.52;14.50;;;11.90;62.40;;;;;;4984728;28;114741;-84
2023/05/03 12:22:00;;;;;;;23.38;14.18;;;11.80;62.10;;;;;;5000913;28;115889;-85
2023/05/03 12:24:48;;;;;;;17.02;12.68;;;11.70;62.00;;;;;;4996092;28;114674;-84
2023/05/03 12:27:16;;;;;;;21.05;15.00;;;11.70;61.60;;;;;;5016475;28;118130;-84
2023/05/03 12:29:45;;;;;;;21.02;15.23;;;11.70;61.80;;;;;;4996958;28;115356;-85
2023/05/03 12:32:13;;;;;;;18.77;14.02;;;11.70;62.40;;;;;;4999507;28;114629;-84